Montney, Canada
Current Conditions -  °F | °C
As of 2:00 PM on Saturday 25 Oct 2014 (Local Time) from CYXJ Reporting Station
Broken Clouds Broken Clouds  
Wind Chill: 23°   Ceiling: 10000
Heat Index: 30°   Visibility: 15mi
Dew Point: 28°   Wind: 7mph
Humidity: 93%   Direction: 360°N
Pressure: 29.79"   Gusts: NA
Location:  56.45°N, 120.92°W
Report Text: CYXJ 252000Z 36006KT 15SM BKN100 M01/M02 A2979 RMK AC7 SLP120
Loading
Personal Weather Stations






























Interactive Weather Map
Tropical Storm Tracking
New forecast layout! Learn more

10-Day Weather Forecast

Advertisements
Track Severe Weather on mobile